QXE2213 KMFR-KSEA
Flight info
| Callsign | QXE2213 |
|---|---|
| Flight time | N/A |
| Altitude | 36000 |
| Route | JKSN1 OED V595 CUTTR RENAA BTG HAWKZ8 |
| Aircraft | E75L/M-SDE3GILORVW/S |
Departure
| Time | 2026-04-25 02:00 |
|---|---|
| Airport | Rogue Valley International-Medford Airport (KMFR) |
Arrival
| Time | N/A |
|---|---|
| Airport | Seattle–Tacoma International Airport (KSEA) |
| Time | Latitude | Longitude | Altitude | Speed | Heading |
|---|---|---|---|---|---|
| 2026-04-25 01:47 | 42.36810 | -122.87264 | 1323 ft | 0 kts | 186° |
| 2026-04-25 01:55 | 42.36827 | -122.87262 | 1323 ft | 3 kts | 184° |
| 2026-04-25 01:55 | 42.36843 | -122.87265 | 1323 ft | 3 kts | 116° |
| 2026-04-25 01:55 | 42.36843 | -122.87266 | 1323 ft | 2 kts | 64° |
| 2026-04-25 01:57 | 42.36847 | -122.87256 | 1323 ft | 3 kts | 64° |
| 2026-04-25 01:57 | 42.36858 | -122.87222 | 1323 ft | 5 kts | 70° |
| 2026-04-25 01:58 | 42.36852 | -122.87166 | 1323 ft | 8 kts | 127° |
| 2026-04-25 01:58 | 42.36797 | -122.87123 | 1323 ft | 11 kts | 158° |
| 2026-04-25 01:58 | 42.36712 | -122.87079 | 1323 ft | 15 kts | 159° |
| 2026-04-25 01:58 | 42.36611 | -122.87026 | 1323 ft | 16 kts | 159° |
| 2026-04-25 01:59 | 42.36504 | -122.86970 | 1327 ft | 16 kts | 159° |
| 2026-04-25 01:59 | 42.36406 | -122.86918 | 1331 ft | 14 kts | 159° |
| 2026-04-25 01:59 | 42.36353 | -122.86868 | 1334 ft | 8 kts | 104° |
| 2026-04-25 01:59 | 42.36376 | -122.86783 | 1335 ft | 10 kts | 38° |
| 2026-04-25 02:00 | 42.36459 | -122.86786 | 1333 ft | 22 kts | 340° |
| 2026-04-25 02:00 | 42.36861 | -122.86998 | 1329 ft | 102 kts | 339° |
| 2026-04-25 02:00 | 42.37744 | -122.87462 | 1429 ft | 161 kts | 338° |
| 2026-04-25 02:00 | 42.38834 | -122.88014 | 2271 ft | 173 kts | 339° |
| 2026-04-25 02:01 | 42.40028 | -122.88569 | 3027 ft | 187 kts | 340° |
| 2026-04-25 02:01 | 42.41163 | -122.89076 | 4341 ft | 162 kts | 340° |
| 2026-04-25 02:01 | 42.42313 | -122.89490 | 4984 ft | 174 kts | 349° |
| 2026-04-25 02:01 | 42.43476 | -122.89728 | 5883 ft | 173 kts | 351° |
| 2026-04-25 02:02 | 42.44676 | -122.89986 | 6539 ft | 179 kts | 350° |
| 2026-04-25 02:02 | 42.45952 | -122.90231 | 7169 ft | 188 kts | 351° |
| 2026-04-25 02:02 | 42.47290 | -122.90509 | 7814 ft | 202 kts | 352° |